ADDS TAF Data INFO
IDs: Format: Raw Decoded Include METARs

Data at: 1744 UTC 25 Feb 2018

KLUF 251658Z AUTO 03003KT 10SM CLR 10/M08 A3023 RMK AO2 SLP238 T00991078 $

TAF KLUF 251201Z 2512/2618 VRB06KT 9999 SKC QNH3008INS TX17/2522Z TN01/2512Z